sensor_id;sensor_type;location;lat;lon;timestamp;pressure;altitude;pressure_sealevel;temperature;humidity
62418;BME280;48456;54.242;10.280;2023-09-19T00:01:25;99989.31;;;14.74;100.00
62418;BME280;48456;54.242;10.280;2023-09-19T00:04:04;99988.34;;;14.77;100.00
62418;BME280;48456;54.242;10.280;2023-09-19T00:06:53;99994.47;;;14.80;100.00
62418;BME280;48456;54.242;10.280;2023-09-19T00:09:20;99994.38;;;14.82;100.00
62418;BME280;48456;54.242;10.280;2023-09-19T00:14:59;100006.84;;;14.81;100.00
62418;BME280;48456;54.242;10.280;2023-09-19T00:20:21;99999.63;;;14.85;100.00
62418;BME280;48456;54.242;10.280;2023-09-19T00:23:02;99997.97;;;14.81;100.00
62418;BME280;48456;54.242;10.280;2023-09-19T00:25:51;100000.63;;;14.81;100.00
62418;BME280;48456;54.242;10.280;2023-09-19T00:28:24;100007.78;;;14.80;100.00
62418;BME280;48456;54.242;10.280;2023-09-19T00:30:58;100012.97;;;14.84;100.00
62418;BME280;48456;54.242;10.280;2023-09-19T00:33:39;100012.97;;;14.84;100.00
62418;BME280;48456;54.242;10.280;2023-09-19T00:36:06;100006.56;;;14.89;100.00
62418;BME280;48456;54.242;10.280;2023-09-19T00:38:59;100006.56;;;14.89;100.00
62418;BME280;48456;54.242;10.280;2023-09-19T00:41:28;100010.16;;;14.88;100.00
62418;BME280;48456;54.242;10.280;2023-09-19T00:47:07;100007.81;;;14.79;100.00
62418;BME280;48456;54.242;10.280;2023-09-19T00:49:56;100010.56;;;14.76;100.00
62418;BME280;48456;54.242;10.280;2023-09-19T00:52:24;100012.34;;;14.75;100.00
62418;BME280;48456;54.242;10.280;2023-09-19T00:54:51;100007.13;;;14.72;100.00
62418;BME280;48456;54.242;10.280;2023-09-19T00:57:18;100008.09;;;14.69;100.00
62418;BME280;48456;54.242;10.280;2023-09-19T00:59:46;100019.84;;;14.64;100.00
62418;BME280;48456;54.242;10.280;2023-09-19T01:02:14;100019.88;;;14.62;100.00
62418;BME280;48456;54.242;10.280;2023-09-19T01:04:43;100019.97;;;14.59;100.00
62418;BME280;48456;54.242;10.280;2023-09-19T01:07:11;100024.28;;;14.63;100.00
62418;BME280;48456;54.242;10.280;2023-09-19T01:09:37;100019.00;;;14.62;100.00
62418;BME280;48456;54.242;10.280;2023-09-19T01:12:05;100018.97;;;14.63;100.00
62418;BME280;48456;54.242;10.280;2023-09-19T01:17:09;100025.16;;;14.64;100.00
62418;BME280;48456;54.242;10.280;2023-09-19T01:22:24;100029.50;;;14.66;100.00
62418;BME280;48456;54.242;10.280;2023-09-19T01:29:50;100044.50;;;14.69;100.00
62418;BME280;48456;54.242;10.280;2023-09-19T01:32:20;100040.91;;;14.70;100.00
62418;BME280;48456;54.242;10.280;2023-09-19T01:34:55;100039.00;;;14.74;100.00
62418;BME280;48456;54.242;10.280;2023-09-19T01:37:30;100042.50;;;14.76;100.00
62418;BME280;48456;54.242;10.280;2023-09-19T01:39:58;100029.06;;;14.80;100.00
62418;BME280;48456;54.242;10.280;2023-09-19T01:48:12;100038.09;;;14.75;100.00
62418;BME280;48456;54.242;10.280;2023-09-19T01:50:49;100041.88;;;14.67;100.00
62418;BME280;48456;54.242;10.280;2023-09-19T01:53:23;100044.59;;;14.66;100.00
62418;BME280;48456;54.242;10.280;2023-09-19T01:55:51;100050.94;;;14.62;100.00
62418;BME280;48456;54.242;10.280;2023-09-19T01:58:35;100038.63;;;14.59;100.00
62418;BME280;48456;54.242;10.280;2023-09-19T02:01:05;100039.38;;;14.63;100.00
62418;BME280;48456;54.242;10.280;2023-09-19T02:03:34;100049.31;;;14.58;100.00
62418;BME280;48456;54.242;10.280;2023-09-19T02:06:02;100065.44;;;14.53;100.00
62418;BME280;48456;54.242;10.280;2023-09-19T02:08:29;100058.31;;;14.53;100.00
62418;BME280;48456;54.242;10.280;2023-09-19T02:10:57;100049.56;;;14.50;100.00
62418;BME280;48456;54.242;10.280;2023-09-19T02:13:24;100054.97;;;14.47;100.00
62418;BME280;48456;54.242;10.280;2023-09-19T02:15:54;100068.38;;;14.43;100.00
62418;BME280;48456;54.242;10.280;2023-09-19T02:18:20;100068.59;;;14.37;100.00
62418;BME280;48456;54.242;10.280;2023-09-19T02:20:47;100063.44;;;14.31;100.00
62418;BME280;48456;54.242;10.280;2023-09-19T02:23:14;100068.94;;;14.26;100.00
62418;BME280;48456;54.242;10.280;2023-09-19T02:25:41;100062.81;;;14.23;100.00
62418;BME280;48456;54.242;10.280;2023-09-19T02:28:11;100062.97;;;14.18;100.00
62418;BME280;48456;54.242;10.280;2023-09-19T02:30:37;100064.81;;;14.16;100.00
62418;BME280;48456;54.242;10.280;2023-09-19T02:33:04;100071.13;;;14.12;100.00
62418;BME280;48456;54.242;10.280;2023-09-19T02:35:31;100079.22;;;14.09;100.00
62418;BME280;48456;54.242;10.280;2023-09-19T02:38:01;100078.34;;;14.08;100.00
62418;BME280;48456;54.242;10.280;2023-09-19T02:40:29;100087.25;;;14.07;100.00
62418;BME280;48456;54.242;10.280;2023-09-19T02:42:56;100081.13;;;14.03;100.00
62418;BME280;48456;54.242;10.280;2023-09-19T02:45:22;100079.34;;;14.04;100.00
62418;BME280;48456;54.242;10.280;2023-09-19T02:47:49;100080.31;;;14.01;100.00
62418;BME280;48456;54.242;10.280;2023-09-19T02:50:16;100072.38;;;14.00;100.00
62418;BME280;48456;54.242;10.280;2023-09-19T02:52:44;100067.22;;;13.95;100.00
62418;BME280;48456;54.242;10.280;2023-09-19T02:55:11;100080.56;;;13.94;100.00
62418;BME280;48456;54.242;10.280;2023-09-19T02:57:40;100077.09;;;13.90;100.00
62418;BME280;48456;54.242;10.280;2023-09-19T03:00:09;100076.22;;;13.91;100.00
62418;BME280;48456;54.242;10.280;2023-09-19T03:02:38;100067.34;;;13.90;100.00
62418;BME280;48456;54.242;10.280;2023-09-19T03:05:07;100071.84;;;13.88;100.00
62418;BME280;48456;54.242;10.280;2023-09-19T03:07:34;100077.22;;;13.87;100.00
62418;BME280;48456;54.242;10.280;2023-09-19T03:10:00;100082.38;;;13.92;100.00
62418;BME280;48456;54.242;10.280;2023-09-19T03:12:27;100089.34;;;13.96;100.00
62418;BME280;48456;54.242;10.280;2023-09-19T03:14:53;100090.19;;;13.98;100.00
62418;BME280;48456;54.242;10.280;2023-09-19T03:17:20;100087.56;;;13.96;100.00
62418;BME280;48456;54.242;10.280;2023-09-19T03:19:47;100097.25;;;13.99;100.00
62418;BME280;48456;54.242;10.280;2023-09-19T03:22:14;100098.91;;;14.03;100.00
62418;BME280;48456;54.242;10.280;2023-09-19T03:24:41;100098.97;;;14.00;100.00
62418;BME280;48456;54.242;10.280;2023-09-19T03:27:09;100105.22;;;13.99;100.00
62418;BME280;48456;54.242;10.280;2023-09-19T03:29:35;100108.69;;;14.01;100.00
62418;BME280;48456;54.242;10.280;2023-09-19T03:32:02;100110.38;;;14.03;100.00
62418;BME280;48456;54.242;10.280;2023-09-19T03:34:29;100112.97;;;14.07;100.00
62418;BME280;48456;54.242;10.280;2023-09-19T03:36:56;100118.47;;;14.00;100.00
62418;BME280;48456;54.242;10.280;2023-09-19T03:39:22;100107.03;;;13.97;100.00
62418;BME280;48456;54.242;10.280;2023-09-19T03:41:49;100114.22;;;13.95;100.00
62418;BME280;48456;54.242;10.280;2023-09-19T03:44:16;100112.63;;;13.87;100.00
62418;BME280;48456;54.242;10.280;2023-09-19T03:46:42;100108.28;;;13.85;100.00
62418;BME280;48456;54.242;10.280;2023-09-19T03:49:09;100110.25;;;13.78;100.00
62418;BME280;48456;54.242;10.280;2023-09-19T03:51:36;100115.84;;;13.69;100.00
62418;BME280;48456;54.242;10.280;2023-09-19T03:54:03;100121.22;;;13.66;100.00
62418;BME280;48456;54.242;10.280;2023-09-19T03:56:30;100110.78;;;13.59;100.00
62418;BME280;48456;54.242;10.280;2023-09-19T03:58:57;100119.84;;;13.52;100.00
62418;BME280;48456;54.242;10.280;2023-09-19T04:01:23;100116.44;;;13.45;100.00
62418;BME280;48456;54.242;10.280;2023-09-19T04:03:50;100120.88;;;13.45;100.00
62418;BME280;48456;54.242;10.280;2023-09-19T04:06:18;100121.91;;;13.39;100.00
62418;BME280;48456;54.242;10.280;2023-09-19T04:08:44;100131.03;;;13.29;100.00
62418;BME280;48456;54.242;10.280;2023-09-19T04:11:12;100125.81;;;13.25;100.00
62418;BME280;48456;54.242;10.280;2023-09-19T04:13:38;100129.44;;;13.21;100.00
62418;BME280;48456;54.242;10.280;2023-09-19T04:16:05;100134.06;;;13.15;100.00
62418;BME280;48456;54.242;10.280;2023-09-19T04:18:33;100131.47;;;13.11;100.00
62418;BME280;48456;54.242;10.280;2023-09-19T04:21:03;100142.09;;;13.11;100.00
62418;BME280;48456;54.242;10.280;2023-09-19T04:23:32;100142.28;;;13.04;100.00
62418;BME280;48456;54.242;10.280;2023-09-19T04:25:58;100146.78;;;13.02;100.00
62418;BME280;48456;54.242;10.280;2023-09-19T04:28:25;100129.31;;;12.91;100.00
62418;BME280;48456;54.242;10.280;2023-09-19T04:30:54;100139.94;;;12.91;100.00
62418;BME280;48456;54.242;10.280;2023-09-19T04:33:21;100147.13;;;12.88;100.00
62418;BME280;48456;54.242;10.280;2023-09-19T04:35:50;100156.16;;;12.79;100.00
62418;BME280;48456;54.242;10.280;2023-09-19T04:38:18;100160.66;;;12.77;100.00
62418;BME280;48456;54.242;10.280;2023-09-19T04:40:45;100163.56;;;12.66;100.00
62418;BME280;48456;54.242;10.280;2023-09-19T04:43:12;100171.56;;;12.64;100.00
62418;BME280;48456;54.242;10.280;2023-09-19T04:45:39;100169.72;;;12.66;100.00
62418;BME280;48456;54.242;10.280;2023-09-19T04:48:06;100167.94;;;12.67;100.00
62418;BME280;48456;54.242;10.280;2023-09-19T04:50:33;100174.47;;;12.52;100.00
62418;BME280;48456;54.242;10.280;2023-09-19T04:53:00;100179.63;;;12.58;100.00
62418;BME280;48456;54.242;10.280;2023-09-19T04:55:27;100180.59;;;12.55;100.00
62418;BME280;48456;54.242;10.280;2023-09-19T04:57:53;100188.66;;;12.51;100.00
62418;BME280;48456;54.242;10.280;2023-09-19T05:00:24;100187.84;;;12.47;100.00
62418;BME280;48456;54.242;10.280;2023-09-19T05:02:51;100186.03;;;12.49;100.00
62418;BME280;48456;54.242;10.280;2023-09-19T05:05:18;100193.19;;;12.44;100.00
62418;BME280;48456;54.242;10.280;2023-09-19T05:07:45;100188.72;;;12.47;100.00
62418;BME280;48456;54.242;10.280;2023-09-19T05:10:12;100190.47;;;12.48;100.00
62418;BME280;48456;54.242;10.280;2023-09-19T05:12:40;100190.53;;;12.45;100.00
62418;BME280;48456;54.242;10.280;2023-09-19T05:15:07;100190.69;;;12.38;100.00
62418;BME280;48456;54.242;10.280;2023-09-19T05:17:34;100203.81;;;12.44;100.00
62418;BME280;48456;54.242;10.280;2023-09-19T05:20:01;100199.44;;;12.43;100.00
62418;BME280;48456;54.242;10.280;2023-09-19T05:22:41;100205.69;;;12.39;100.00
62418;BME280;48456;54.242;10.280;2023-09-19T05:25:09;100210.25;;;12.33;100.00
62418;BME280;48456;54.242;10.280;2023-09-19T05:27:36;100212.94;;;12.30;100.00
62418;BME280;48456;54.242;10.280;2023-09-19T05:30:03;100213.75;;;12.36;100.00
62418;BME280;48456;54.242;10.280;2023-09-19T05:32:29;100212.97;;;12.29;100.00
62418;BME280;48456;54.242;10.280;2023-09-19T05:34:56;100216.44;;;12.34;100.00
62418;BME280;48456;54.242;10.280;2023-09-19T05:37:24;100218.25;;;12.30;100.00
62418;BME280;48456;54.242;10.280;2023-09-19T05:39:52;100220.81;;;12.35;100.00
62418;BME280;48456;54.242;10.280;2023-09-19T05:42:21;100218.25;;;12.30;100.00
62418;BME280;48456;54.242;10.280;2023-09-19T05:44:48;100218.09;;;12.38;100.00
62418;BME280;48456;54.242;10.280;2023-09-19T05:47:14;100213.78;;;12.34;100.00
62418;BME280;48456;54.242;10.280;2023-09-19T05:49:41;100228.56;;;12.44;100.00
62418;BME280;48456;54.242;10.280;2023-09-19T05:52:08;100224.44;;;12.31;100.00
62418;BME280;48456;54.242;10.280;2023-09-19T05:54:34;100240.41;;;12.28;100.00
62418;BME280;48456;54.242;10.280;2023-09-19T05:57:01;100235.97;;;12.30;100.00
62418;BME280;48456;54.242;10.280;2023-09-19T05:59:28;100235.94;;;12.31;100.00
62418;BME280;48456;54.242;10.280;2023-09-19T06:01:54;100231.53;;;12.29;100.00
62418;BME280;48456;54.242;10.280;2023-09-19T06:04:21;100236.66;;;12.40;100.00
62418;BME280;48456;54.242;10.280;2023-09-19T06:06:48;100238.25;;;12.47;100.00
62418;BME280;48456;54.242;10.280;2023-09-19T06:09:15;100230.94;;;12.58;100.00
62418;BME280;48456;54.242;10.280;2023-09-19T06:11:41;100216.97;;;12.90;100.00
62418;BME280;48456;54.242;10.280;2023-09-19T06:14:08;100211.13;;;13.11;100.00
62418;BME280;48456;54.242;10.280;2023-09-19T06:16:36;100215.19;;;13.26;100.00
62418;BME280;48456;54.242;10.280;2023-09-19T06:19:04;100216.66;;;13.40;100.00
62418;BME280;48456;54.242;10.280;2023-09-19T06:21:35;100219.91;;;13.51;100.00
62418;BME280;48456;54.242;10.280;2023-09-19T06:24:02;100217.16;;;13.56;100.00
62418;BME280;48456;54.242;10.280;2023-09-19T06:26:29;100221.41;;;13.63;100.00
62418;BME280;48456;54.242;10.280;2023-09-19T06:28:57;100223.06;;;13.68;100.00
62418;BME280;48456;54.242;10.280;2023-09-19T06:31:23;100217.56;;;13.74;100.00
62418;BME280;48456;54.242;10.280;2023-09-19T06:33:52;100231.56;;;13.81;100.00
62418;BME280;48456;54.242;10.280;2023-09-19T06:36:19;100238.44;;;13.89;100.00
62418;BME280;48456;54.242;10.280;2023-09-19T06:38:46;100248.81;;;13.99;100.00
62418;BME280;48456;54.242;10.280;2023-09-19T06:41:13;100235.25;;;14.08;100.00
62418;BME280;48456;54.242;10.280;2023-09-19T06:43:41;100233.25;;;14.16;100.00
62418;BME280;48456;54.242;10.280;2023-09-19T06:46:07;100238.22;;;14.29;100.00
62418;BME280;48456;54.242;10.280;2023-09-19T06:48:34;100240.88;;;14.29;100.00
62418;BME280;48456;54.242;10.280;2023-09-19T06:51:01;100234.88;;;14.22;100.00
62418;BME280;48456;54.242;10.280;2023-09-19T06:53:32;100243.13;;;14.13;100.00
62418;BME280;48456;54.242;10.280;2023-09-19T06:55:58;100250.25;;;14.11;100.00
62418;BME280;48456;54.242;10.280;2023-09-19T06:58:25;100246.72;;;14.10;100.00
62418;BME280;48456;54.242;10.280;2023-09-19T07:00:51;100255.50;;;14.14;100.00
62418;BME280;48456;54.242;10.280;2023-09-19T07:03:18;100254.59;;;14.13;100.00
62418;BME280;48456;54.242;10.280;2023-09-19T07:05:47;100258.06;;;14.17;100.00
62418;BME280;48456;54.242;10.280;2023-09-19T07:08:14;100258.78;;;14.24;100.00
62418;BME280;48456;54.242;10.280;2023-09-19T07:10:41;100246.94;;;14.34;100.00
62418;BME280;48456;54.242;10.280;2023-09-19T07:13:15;100262.63;;;14.43;100.00
62418;BME280;48456;54.242;10.280;2023-09-19T07:15:43;100258.78;;;14.54;100.00
62418;BME280;48456;54.242;10.280;2023-09-19T07:18:13;100256.16;;;14.52;100.00
62418;BME280;48456;54.242;10.280;2023-09-19T07:20:43;100265.03;;;14.53;100.00
62418;BME280;48456;54.242;10.280;2023-09-19T07:23:16;100255.41;;;14.49;100.00
62418;BME280;48456;54.242;10.280;2023-09-19T07:25:44;100263.44;;;14.47;100.00
62418;BME280;48456;54.242;10.280;2023-09-19T07:28:12;100257.25;;;14.45;100.00
62418;BME280;48456;54.242;10.280;2023-09-19T07:30:39;100265.25;;;14.45;100.00
62418;BME280;48456;54.242;10.280;2023-09-19T07:33:07;100274.75;;;14.54;100.00
62418;BME280;48456;54.242;10.280;2023-09-19T07:35:33;100269.25;;;14.60;100.00
62418;BME280;48456;54.242;10.280;2023-09-19T07:38:00;100280.78;;;14.61;100.00
62418;BME280;48456;54.242;10.280;2023-09-19T07:40:29;100281.50;;;14.66;100.00
62418;BME280;48456;54.242;10.280;2023-09-19T07:42:56;100277.38;;;14.55;100.00
62418;BME280;48456;54.242;10.280;2023-09-19T07:45:23;100277.06;;;14.66;100.00
62418;BME280;48456;54.242;10.280;2023-09-19T07:47:51;100282.28;;;14.69;100.00
62418;BME280;48456;54.242;10.280;2023-09-19T07:50:18;100291.91;;;14.74;100.00
62418;BME280;48456;54.242;10.280;2023-09-19T07:52:49;100283.91;;;14.74;100.00
62418;BME280;48456;54.242;10.280;2023-09-19T07:55:20;100279.44;;;14.76;100.00
62418;BME280;48456;54.242;10.280;2023-09-19T07:57:50;100285.81;;;14.70;100.00
62418;BME280;48456;54.242;10.280;2023-09-19T08:00:17;100283.81;;;14.78;100.00
62418;BME280;48456;54.242;10.280;2023-09-19T08:02:43;100290.94;;;14.78;100.00
62418;BME280;48456;54.242;10.280;2023-09-19T08:05:11;100301.38;;;14.86;100.00
62418;BME280;48456;54.242;10.280;2023-09-19T08:07:39;100295.88;;;14.90;100.00
62418;BME280;48456;54.242;10.280;2023-09-19T08:10:06;100303.91;;;14.89;100.00
62418;BME280;48456;54.242;10.280;2023-09-19T08:12:39;100295.00;;;14.91;100.00
62418;BME280;48456;54.242;10.280;2023-09-19T08:15:13;100301.97;;;14.96;100.00
62418;BME280;48456;54.242;10.280;2023-09-19T08:17:40;100288.78;;;14.91;100.00
62418;BME280;48456;54.242;10.280;2023-09-19T08:20:07;100296.25;;;15.08;100.00
62418;BME280;48456;54.242;10.280;2023-09-19T08:22:35;100291.53;;;15.16;100.00
62418;BME280;48456;54.242;10.280;2023-09-19T08:25:01;100285.28;;;15.19;100.00
62418;BME280;48456;54.242;10.280;2023-09-19T08:27:28;100286.31;;;15.13;100.00
62418;BME280;48456;54.242;10.280;2023-09-19T08:29:54;100292.84;;;15.03;100.00
62418;BME280;48456;54.242;10.280;2023-09-19T08:32:20;100294.69;;;15.01;100.00
62418;BME280;48456;54.242;10.280;2023-09-19T08:34:50;100286.47;;;15.09;100.00
62418;BME280;48456;54.242;10.280;2023-09-19T08:37:17;100293.78;;;15.02;100.00
62418;BME280;48456;54.242;10.280;2023-09-19T08:39:45;100288.66;;;14.96;100.00
62418;BME280;48456;54.242;10.280;2023-09-19T08:42:12;100298.50;;;14.92;100.00
62418;BME280;48456;54.242;10.280;2023-09-19T08:44:39;100295.00;;;14.91;100.00
62418;BME280;48456;54.242;10.280;2023-09-19T08:47:10;100294.91;;;14.93;100.00
62418;BME280;48456;54.242;10.280;2023-09-19T08:49:47;100298.56;;;14.90;100.00
62418;BME280;48456;54.242;10.280;2023-09-19T08:52:37;100300.44;;;14.87;100.00
62418;BME280;48456;54.242;10.280;2023-09-19T08:55:05;100299.41;;;14.92;100.00
62418;BME280;48456;54.242;10.280;2023-09-19T08:57:36;100293.47;;;15.11;100.00
62418;BME280;48456;54.242;10.280;2023-09-19T09:00:08;100300.38;;;15.45;100.00
62418;BME280;48456;54.242;10.280;2023-09-19T09:02:37;100300.28;;;15.49;100.00
62418;BME280;48456;54.242;10.280;2023-09-19T09:05:07;100305.28;;;15.59;100.00
62418;BME280;48456;54.242;10.280;2023-09-19T09:07:35;100300.16;;;15.53;100.00
62418;BME280;48456;54.242;10.280;2023-09-19T09:10:03;100304.81;;;15.46;100.00
62418;BME280;48456;54.242;10.280;2023-09-19T09:12:30;100307.47;;;15.46;100.00
62418;BME280;48456;54.242;10.280;2023-09-19T09:14:56;100312.19;;;15.38;100.00
62418;BME280;48456;54.242;10.280;2023-09-19T09:17:23;100317.25;;;15.46;100.00
62418;BME280;48456;54.242;10.280;2023-09-19T09:19:54;100322.56;;;15.48;100.00
62418;BME280;48456;54.242;10.280;2023-09-19T09:22:20;100316.19;;;15.52;100.00
62418;BME280;48456;54.242;10.280;2023-09-19T09:24:54;100325.16;;;15.49;100.00
62418;BME280;48456;54.242;10.280;2023-09-19T09:27:20;100322.28;;;15.55;100.00
62418;BME280;48456;54.242;10.280;2023-09-19T09:29:51;100333.97;;;15.51;100.00
62418;BME280;48456;54.242;10.280;2023-09-19T09:32:18;100329.34;;;15.56;100.00
62418;BME280;48456;54.242;10.280;2023-09-19T09:34:47;100319.47;;;15.60;100.00
62418;BME280;48456;54.242;10.280;2023-09-19T09:37:15;100342.53;;;15.61;100.00
62418;BME280;48456;54.242;10.280;2023-09-19T09:39:48;100341.22;;;15.75;100.00
62418;BME280;48456;54.242;10.280;2023-09-19T09:42:28;100347.13;;;15.84;100.00
62418;BME280;48456;54.242;10.280;2023-09-19T09:47:44;100345.47;;;16.07;100.00
62418;BME280;48456;54.242;10.280;2023-09-19T09:50:35;100329.22;;;16.15;100.00
62418;BME280;48456;54.242;10.280;2023-09-19T09:58:52;100342.22;;;16.24;100.00
62418;BME280;48456;54.242;10.280;2023-09-19T10:01:25;100332.34;;;16.27;100.00
62418;BME280;48456;54.242;10.280;2023-09-19T10:03:58;100329.44;;;16.34;100.00
62418;BME280;48456;54.242;10.280;2023-09-19T10:06:26;100327.63;;;16.35;100.00
62418;BME280;48456;54.242;10.280;2023-09-19T10:09:00;100331.25;;;16.58;100.00
62418;BME280;48456;54.242;10.280;2023-09-19T10:11:39;100332.25;;;16.55;100.00
62418;BME280;48456;54.242;10.280;2023-09-19T10:14:06;100336.94;;;16.72;100.00
62418;BME280;48456;54.242;10.280;2023-09-19T10:16:35;100334.56;;;16.88;100.00
62418;BME280;48456;54.242;10.280;2023-09-19T10:19:03;100328.78;;;16.77;100.00
62418;BME280;48456;54.242;10.280;2023-09-19T10:21:33;100343.81;;;16.80;100.00
62418;BME280;48456;54.242;10.280;2023-09-19T10:24:03;100325.50;;;16.93;100.00
62418;BME280;48456;54.242;10.280;2023-09-19T10:26:31;100330.81;;;17.18;100.00
62418;BME280;48456;54.242;10.280;2023-09-19T10:28:58;100339.44;;;17.25;100.00
62418;BME280;48456;54.242;10.280;2023-09-19T10:31:27;100341.50;;;17.40;100.00
62418;BME280;48456;54.242;10.280;2023-09-19T10:33:55;100350.19;;;17.23;100.00
62418;BME280;48456;54.242;10.280;2023-09-19T10:36:24;100346.84;;;17.18;100.00
62418;BME280;48456;54.242;10.280;2023-09-19T10:38:52;100347.47;;;17.25;100.00
62418;BME280;48456;54.242;10.280;2023-09-19T10:41:21;100350.78;;;17.54;100.00
62418;BME280;48456;54.242;10.280;2023-09-19T10:43:48;100349.28;;;17.47;100.00
62418;BME280;48456;54.242;10.280;2023-09-19T10:46:15;100335.44;;;16.89;100.00
62418;BME280;48456;54.242;10.280;2023-09-19T10:48:42;100349.38;;;16.97;100.00
62418;BME280;48456;54.242;10.280;2023-09-19T10:51:15;100349.25;;;17.00;100.00
62418;BME280;48456;54.242;10.280;2023-09-19T10:53:53;100349.72;;;17.12;100.00
62418;BME280;48456;54.242;10.280;2023-09-19T10:56:27;100355.00;;;17.37;100.00
62418;BME280;48456;54.242;10.280;2023-09-19T10:59:08;100360.41;;;17.58;100.00
62418;BME280;48456;54.242;10.280;2023-09-19T11:01:46;100353.72;;;17.69;100.00
62418;BME280;48456;54.242;10.280;2023-09-19T11:04:21;100348.09;;;17.97;100.00
62418;BME280;48456;54.242;10.280;2023-09-19T11:07:08;100347.72;;;18.27;100.00
62418;BME280;48456;54.242;10.280;2023-09-19T11:12:12;100345.47;;;18.98;100.00
62418;BME280;48456;54.242;10.280;2023-09-19T11:15:03;100343.31;;;18.47;100.00
62418;BME280;48456;54.242;10.280;2023-09-19T11:30:48;100348.03;;;18.61;100.00
62418;BME280;48456;54.242;10.280;2023-09-19T11:43:53;100327.31;;;18.65;100.00
62418;BME280;48456;54.242;10.280;2023-09-19T11:46:23;100344.28;;;18.65;100.00
62418;BME280;48456;54.242;10.280;2023-09-19T11:48:50;100358.84;;;18.79;100.00
62418;BME280;48456;54.242;10.280;2023-09-19T11:51:24;100337.56;;;18.95;100.00
62418;BME280;48456;54.242;10.280;2023-09-19T11:53:55;100333.44;;;18.88;100.00
62418;BME280;48456;54.242;10.280;2023-09-19T11:56:23;100327.75;;;19.15;100.00
62418;BME280;48456;54.242;10.280;2023-09-19T11:58:51;100329.91;;;19.26;100.00
62418;BME280;48456;54.242;10.280;2023-09-19T12:01:25;100331.06;;;19.20;100.00
62418;BME280;48456;54.242;10.280;2023-09-19T12:03:56;100340.34;;;19.13;100.00
62418;BME280;48456;54.242;10.280;2023-09-19T12:06:27;100337.47;;;18.77;100.00
62418;BME280;48456;54.242;10.280;2023-09-19T12:08:56;100343.66;;;18.39;100.00
62418;BME280;48456;54.242;10.280;2023-09-19T12:11:27;100341.53;;;18.67;100.00
62418;BME280;48456;54.242;10.280;2023-09-19T12:13:54;100341.75;;;19.01;100.00
62418;BME280;48456;54.242;10.280;2023-09-19T12:16:25;100342.16;;;19.12;100.00
62418;BME280;48456;54.242;10.280;2023-09-19T12:18:52;100343.91;;;19.13;100.00
62418;BME280;48456;54.242;10.280;2023-09-19T12:21:27;100338.69;;;19.10;100.00
62418;BME280;48456;54.242;10.280;2023-09-19T12:23:57;100339.81;;;18.85;100.00
62418;BME280;48456;54.242;10.280;2023-09-19T12:26:26;100347.38;;;18.96;100.00
62418;BME280;48456;54.242;10.280;2023-09-19T12:28:52;100342.16;;;19.31;100.00
62418;BME280;48456;54.242;10.280;2023-09-19T12:31:19;100332.22;;;19.70;100.00
62418;BME280;48456;54.242;10.280;2023-09-19T12:33:45;100339.19;;;19.92;100.00
62418;BME280;48456;54.242;10.280;2023-09-19T12:36:21;100338.16;;;19.95;100.00
62418;BME280;48456;54.242;10.280;2023-09-19T12:38:55;100343.22;;;19.46;100.00
62418;BME280;48456;54.242;10.280;2023-09-19T12:41:22;100343.31;;;19.06;100.00
62418;BME280;48456;54.242;10.280;2023-09-19T12:43:49;100343.88;;;18.94;100.00
62418;BME280;48456;54.242;10.280;2023-09-19T12:46:19;100345.03;;;18.88;100.00
62418;BME280;48456;54.242;10.280;2023-09-19T12:51:35;100323.56;;;18.69;100.00
62418;BME280;48456;54.242;10.280;2023-09-19T12:54:02;100325.22;;;18.72;100.00
62418;BME280;48456;54.242;10.280;2023-09-19T12:56:30;100333.47;;;18.48;100.00
62418;BME280;48456;54.242;10.280;2023-09-19T12:59:07;100336.63;;;18.37;100.00
62418;BME280;48456;54.242;10.280;2023-09-19T13:01:42;100315.28;;;18.35;100.00
62418;BME280;48456;54.242;10.280;2023-09-19T13:06:52;100327.09;;;18.50;100.00
62418;BME280;48456;54.242;10.280;2023-09-19T13:09:19;100323.63;;;18.67;100.00
62418;BME280;48456;54.242;10.280;2023-09-19T13:11:51;100318.78;;;18.76;100.00
62418;BME280;48456;54.242;10.280;2023-09-19T13:14:23;100323.13;;;18.78;100.00
62418;BME280;48456;54.242;10.280;2023-09-19T13:16:57;100315.91;;;19.00;100.00
62418;BME280;48456;54.242;10.280;2023-09-19T13:19:57;100308.34;;;19.09;100.00
62418;BME280;48456;54.242;10.280;2023-09-19T13:22:58;100312.00;;;18.88;100.00
62418;BME280;48456;54.242;10.280;2023-09-19T13:25:21;100296.34;;;18.98;100.00
62418;BME280;48456;54.242;10.280;2023-09-19T13:27:53;100304.31;;;19.18;100.00
62418;BME280;48456;54.242;10.280;2023-09-19T13:30:21;100297.34;;;18.95;100.00
62418;BME280;48456;54.242;10.280;2023-09-19T13:32:48;100291.34;;;18.90;100.00
62418;BME280;48456;54.242;10.280;2023-09-19T13:35:15;100298.50;;;18.89;100.00
62418;BME280;48456;54.242;10.280;2023-09-19T13:37:42;100285.13;;;18.70;100.00
62418;BME280;48456;54.242;10.280;2023-09-19T13:40:13;100288.16;;;18.62;100.00
62418;BME280;48456;54.242;10.280;2023-09-19T13:42:40;100281.44;;;18.73;100.00
62418;BME280;48456;54.242;10.280;2023-09-19T13:45:08;100287.00;;;18.68;100.00
62418;BME280;48456;54.242;10.280;2023-09-19T13:47:39;100280.00;;;18.65;100.00